Pagrindinis puslapis
METAR-TAF:

METAR-TAF

Oro uostai :

Pernu, Estija

platuma: 58-25-09N, ilguma: 024-28-22E, Aukštis: 14 m

Dabartinis oras

Ataskaita buvo paskelbta 13 minutes, ne 03:50 UTC
Vėjas 11 kt iš Pietvakarių
Temperatūra 17°C
Drėgmė 77%
Slėgis 1014 hPa
Matomumas 10 km arba daugiau

METAR: EEPU 060350Z AUTO 23011KT 9999 FEW020/// 17/13 Q1014

Laikas: 07:03 (04:03 UTC)

Prognozė

Ataskaita buvo paskelbta 16 valandos ir 3 minutes, ne 12:00 UTC
Prognozė galioja nuo 05 metu 13 UTC su 05 metu 19 UTC
Vėjas 14 kt iš Vakarų/Pietvakarių
Matomumas 10 km arba daugiau
Išsisklaidę debesys ne aukštis 3500 ft

TAF: EEPU 051200Z 0513/0519 25014KT 9999 SCT035

Orai ataskaitas ir orų prognozės (METAR, TAF).

turimą stotys yra geltonos ir raudonos taškus žemėlapyje.

Perkelti pele per norėdami pamatyti stoties vardą.

Tada spustelėkite, norėdami matyti oro stebėjimo ir prognozės.

Norėdami pakeisti žemėlapį: spustelėkite ant žalios mygtukų su juodo kryžiaus žemyn,; žalią mygtuką su brūkšneliu, jei norite nutolinti; arba žalių rodyklių gretimoms žemėlapius.


METAR-TAF: